Details for Olympic Air at LGAV




Go Back


Latest METAR
Local Time

LGAV 160920Z 03012KT 9999 FEW030 32/12 Q1011 NOSIG
16/08/2018, 12:48:03

Description
Results
Olympic Air Logo
Number of Pilots based at LGAV
0 Pilots Based here
Number of Olympic Air Flights Departed from LGAV
1 Flights Departed
Number of Olympic Air Flights Arrived at LGAV
2 Flights Arrived
Number of Olympic Air Schedules Departing from LGAV
51 Schedules
Number of Olympic Air Schedules Arriving at LGAV
52 Schedules
Number of Olympic Air Schedules Departing from LGAV availible today
32 Schedules Today
Number of Olympic Air Schedules Arriving at LGAV availible today
31 Schedules Today
Average Landing Rate at LGAV
-140 fpm
Olympic Air Average Landing Rate at LGAV
-145 fpm
Total Fuel Purchased at LGAV by Olympic Air
418.67 kgs / 923.00 lbs

Pilots Based at LGAV


Pilot ID
Pilot Name
Pilot Rank
No. of Flights
No. of Flying Hours
There are no pilots assigned to this hub!   Will you be the first?
Content